createdAt,value
2022-08-23T00:04:11.516Z,65.93
2022-08-23T00:09:09.583Z,64.96
2022-08-23T00:14:08.354Z,64.68
2022-08-23T00:19:05.876Z,64.94
2022-08-23T00:24:02.833Z,64.77
2022-08-23T00:29:00.142Z,64.46
2022-08-23T00:33:56.797Z,64.29
2022-08-23T00:38:53.541Z,64.33
2022-08-23T00:44:04.915Z,63.86
2022-08-23T00:49:04.238Z,62.89
2022-08-23T00:54:01.300Z,62.93
2022-08-23T00:58:58.631Z,62.67
2022-08-23T01:04:04.465Z,62.61
2022-08-23T01:09:05.973Z,62.66
2022-08-23T01:14:06.214Z,62.48
2022-08-23T01:19:12.582Z,62.08
2022-08-23T01:24:10.546Z,61.73
2022-08-23T01:29:24.716Z,61.93
2022-08-23T01:34:24.792Z,61.83
2022-08-23T01:39:22.250Z,62.18
2022-08-23T01:44:19.764Z,61.31
2022-08-23T01:49:17.086Z,61.73
2022-08-23T01:54:13.796Z,60.85
2022-08-23T01:59:12.820Z,60.97
2022-08-23T02:04:14.197Z,61.07
2022-08-23T02:09:15.957Z,61.11
2022-08-23T02:14:17.883Z,61.38
2022-08-23T02:19:20.740Z,61.74
2022-08-23T02:24:18.837Z,61.91
2022-08-23T02:29:17.374Z,61.31
2022-08-23T02:34:17.028Z,61.00
2022-08-23T02:39:14.889Z,60.76
2022-08-23T02:44:11.686Z,61.99
2022-08-23T02:49:11.522Z,62.97
2022-08-23T02:54:08.800Z,64.04
2022-08-23T02:59:06.270Z,62.50
2022-08-23T03:04:04.629Z,62.35
2022-08-23T03:09:02.425Z,61.89
2022-08-23T03:14:00.706Z,61.15
2022-08-23T03:18:57.722Z,61.11
2022-08-23T03:23:54.612Z,60.98
2022-08-23T03:28:54.396Z,62.44
2022-08-23T03:33:57.592Z,61.65
2022-08-23T03:38:55.510Z,61.15
2022-08-23T03:43:53.232Z,63.74
2022-08-23T03:48:50.962Z,63.92
2022-08-23T03:53:48.881Z,63.26
2022-08-23T03:58:46.190Z,65.75
2022-08-23T04:03:43.656Z,67.24
2022-08-23T04:08:40.645Z,68.93
2022-08-23T04:13:37.612Z,69.50
2022-08-23T04:18:34.892Z,69.59
2022-08-23T04:23:32.419Z,70.89
2022-08-23T04:28:29.547Z,71.30
2022-08-23T04:33:26.269Z,72.94
2022-08-23T04:38:24.853Z,72.83
2022-08-23T04:43:29.471Z,71.90
2022-08-23T04:48:26.291Z,71.86
2022-08-23T04:53:23.263Z,71.56
2022-08-23T04:58:38.997Z,71.13
2022-08-23T05:03:36.144Z,71.39
2022-08-23T05:08:32.958Z,70.31
2022-08-23T05:13:32.803Z,71.74
2022-08-23T05:18:33.931Z,72.23
2022-08-23T05:23:32.226Z,71.08
2022-08-23T05:28:44.394Z,69.29
2022-08-23T05:33:44.609Z,69.83
2022-08-23T05:38:48.356Z,69.61
2022-08-23T05:43:46.610Z,71.09
2022-08-23T05:48:46.396Z,71.63
2022-08-23T05:53:46.573Z,70.87
2022-08-23T05:58:44.701Z,71.23
2022-08-23T06:03:41.479Z,71.53
2022-08-23T06:08:39.619Z,71.97
2022-08-23T06:13:40.186Z,70.64
2022-08-23T06:18:37.015Z,71.42
2022-08-23T06:24:12.852Z,70.71
2022-08-23T06:29:20.443Z,70.95
2022-08-23T06:34:23.245Z,71.09
2022-08-23T06:39:46.609Z,69.11
2022-08-23T06:45:03.734Z,71.58
2022-08-23T06:50:19.228Z,73.47
2022-08-23T06:55:34.770Z,73.61
2022-08-23T07:00:57.365Z,73.32
2022-08-23T07:06:03.911Z,71.60
2022-08-23T07:11:04.449Z,71.83
2022-08-23T07:16:03.289Z,72.63
2022-08-23T07:21:03.936Z,73.38
2022-08-23T07:26:04.564Z,73.72
2022-08-23T07:31:14.497Z,72.63
2022-08-23T07:36:16.411Z,71.24
2022-08-23T07:41:14.522Z,71.92
2022-08-23T07:46:14.205Z,71.28
2022-08-23T07:51:13.075Z,70.37
2022-08-23T07:56:12.561Z,70.90
2022-08-23T08:01:25.984Z,69.67
2022-08-23T08:06:25.991Z,71.06
2022-08-23T08:11:24.774Z,70.34
2022-08-23T08:16:31.344Z,69.99
2022-08-23T08:21:30.474Z,68.94
2022-08-23T08:26:31.917Z,68.63
2022-08-23T08:31:29.585Z,68.87
2022-08-23T08:36:32.046Z,68.22
2022-08-23T08:41:40.254Z,67.76
2022-08-23T08:46:41.727Z,67.39
2022-08-23T08:51:46.833Z,66.11
2022-08-23T08:56:52.187Z,66.30
2022-08-23T09:02:00.231Z,65.20
2022-08-23T09:07:11.094Z,65.64
2022-08-23T09:12:16.175Z,64.80
2022-08-23T09:17:30.373Z,64.29
2022-08-23T09:22:33.078Z,63.50
2022-08-23T09:27:32.711Z,63.01
2022-08-23T09:32:33.413Z,62.18
2022-08-23T09:37:45.869Z,62.47
2022-08-23T09:42:43.685Z,61.17
2022-08-23T09:47:44.986Z,60.97
2022-08-23T09:52:47.780Z,61.55
2022-08-23T09:57:47.188Z,60.97
2022-08-23T10:02:46.562Z,58.90
2022-08-23T10:07:56.716Z,59.82
2022-08-23T10:12:56.033Z,58.64
2022-08-23T10:18:01.439Z,59.34
2022-08-23T10:23:07.208Z,59.48
2022-08-23T10:28:48.972Z,59.02
2022-08-23T10:33:49.967Z,59.01
2022-08-23T10:38:52.318Z,58.22
2022-08-23T10:43:57.884Z,58.06
2022-08-23T10:48:59.547Z,57.64
2022-08-23T10:54:03.587Z,57.44
2022-08-23T10:59:14.021Z,57.08
2022-08-23T11:04:17.362Z,56.51
2022-08-23T11:09:32.279Z,55.72
2022-08-23T11:14:34.482Z,56.66
2022-08-23T11:19:49.216Z,55.91
2022-08-23T11:24:54.891Z,55.58
2022-08-23T11:29:54.980Z,55.22
2022-08-23T11:35:09.952Z,55.35
2022-08-23T11:40:16.108Z,53.77
2022-08-23T11:45:44.258Z,52.94
2022-08-23T11:50:50.981Z,52.99
2022-08-23T11:56:10.346Z,52.07
2022-08-23T12:01:08.672Z,51.65
2022-08-23T12:06:07.852Z,50.63
2022-08-23T12:11:09.171Z,51.67
2022-08-23T12:16:16.604Z,51.26
2022-08-23T12:21:37.318Z,50.69
2022-08-23T12:26:44.228Z,50.14
2022-08-23T12:31:48.381Z,50.17
2022-08-23T12:36:48.049Z,49.76
2022-08-23T12:41:51.425Z,49.70
2022-08-23T12:46:49.800Z,49.62
2022-08-23T12:51:49.051Z,48.54
2022-08-23T12:56:46.224Z,48.58
2022-08-23T13:01:45.092Z,47.75
2022-08-23T13:06:43.562Z,48.68
2022-08-23T13:11:42.302Z,48.36
2022-08-23T13:16:43.314Z,51.42
2022-08-23T13:21:40.675Z,51.28
2022-08-23T13:26:39.199Z,50.88
2022-08-23T13:31:50.745Z,49.07
2022-08-23T13:36:50.000Z,48.78
2022-08-23T13:41:48.593Z,49.21
2022-08-23T13:46:46.735Z,48.77
2022-08-23T13:57:20.820Z,48.40
2022-08-23T14:02:18.560Z,48.89
2022-08-23T14:07:18.135Z,49.49
2022-08-23T14:12:16.981Z,48.92
2022-08-23T14:17:16.945Z,49.82
2022-08-23T14:22:14.152Z,51.34
2022-08-23T14:27:11.495Z,58.38
2022-08-23T14:32:11.072Z,61.82
2022-08-23T14:42:25.308Z,66.16
2022-08-23T14:47:22.132Z,67.78
2022-08-23T14:52:19.620Z,67.25
2022-08-23T14:57:16.508Z,65.53
2022-08-23T15:02:16.316Z,64.96
2022-08-23T15:07:20.480Z,64.25
2022-08-23T15:17:43.624Z,66.79
2022-08-23T15:22:45.024Z,69.81
2022-08-23T15:27:43.463Z,69.12
2022-08-23T15:32:40.550Z,68.61
2022-08-23T15:37:56.282Z,70.44
2022-08-23T15:42:53.772Z,68.86
2022-08-23T15:47:52.065Z,70.71
2022-08-23T15:52:48.853Z,67.49
2022-08-23T15:57:46.992Z,65.28
2022-08-23T16:03:06.462Z,67.52
2022-08-23T16:08:01.547Z,67.68
2022-08-23T16:12:58.590Z,69.72
2022-08-23T16:17:56.134Z,71.07
2022-08-23T16:22:53.025Z,69.89
2022-08-23T16:27:52.381Z,69.60
2022-08-23T16:32:49.226Z,69.34
2022-08-23T16:37:46.802Z,69.70
2022-08-23T16:42:43.659Z,69.31
2022-08-23T16:47:42.135Z,68.63
2022-08-23T16:52:43.149Z,68.01
2022-08-23T16:57:41.340Z,67.44
2022-08-23T17:02:38.791Z,68.55
2022-08-23T17:07:35.746Z,68.10
2022-08-23T17:12:33.521Z,65.42
2022-08-23T17:17:31.169Z,66.17
2022-08-23T17:22:27.947Z,63.36
2022-08-23T17:27:24.785Z,69.03
2022-08-23T17:32:21.514Z,70.50
2022-08-23T17:37:20.223Z,68.30
2022-08-23T17:42:17.472Z,67.98
2022-08-23T17:47:15.260Z,69.81
2022-08-23T17:52:12.427Z,69.59
2022-08-23T17:57:10.455Z,69.86
2022-08-23T18:02:07.294Z,68.70
2022-08-23T18:07:04.289Z,66.26
2022-08-23T18:12:01.138Z,65.92
2022-08-23T18:17:01.407Z,64.88
2022-08-23T18:22:02.191Z,63.68
2022-08-23T18:27:21.227Z,61.47
2022-08-23T18:32:19.991Z,60.82
2022-08-23T18:37:17.981Z,60.05
2022-08-23T18:42:14.791Z,59.03
2022-08-23T18:47:11.404Z,56.75
2022-08-23T18:52:08.924Z,57.20
2022-08-23T18:57:05.712Z,60.54
2022-08-23T19:02:02.529Z,63.29
2022-08-23T19:06:59.383Z,62.35
2022-08-23T19:11:59.692Z,62.15
2022-08-23T19:16:56.424Z,62.08
2022-08-23T19:22:02.854Z,62.75
2022-08-23T19:27:02.655Z,62.79
2022-08-23T19:31:59.594Z,61.31
2022-08-23T19:37:01.218Z,61.24
2022-08-23T19:41:58.232Z,60.96
2022-08-23T19:46:55.624Z,60.05
2022-08-23T19:51:52.424Z,59.52
2022-08-23T19:56:50.017Z,59.62
2022-08-23T20:01:46.918Z,60.16
2022-08-23T20:06:44.384Z,61.79
2022-08-23T20:11:41.260Z,62.40
2022-08-23T20:16:41.059Z,60.04
2022-08-23T20:21:39.015Z,59.77
2022-08-23T20:26:38.360Z,60.61
2022-08-23T20:31:36.121Z,63.05
2022-08-23T20:36:33.235Z,62.45
2022-08-23T20:41:31.324Z,62.02
2022-08-23T20:46:29.440Z,61.46
2022-08-23T20:51:26.961Z,61.02
2022-08-23T20:56:24.868Z,61.82
2022-08-23T21:01:21.895Z,62.53
2022-08-23T21:06:21.167Z,62.60
2022-08-23T21:11:18.775Z,62.81
2022-08-23T21:16:16.368Z,64.30
2022-08-23T21:21:13.512Z,63.76
2022-08-23T21:26:10.942Z,62.99
2022-08-23T21:31:08.609Z,63.24
2022-08-23T21:36:05.518Z,63.94
2022-08-23T21:41:04.480Z,64.38
2022-08-23T21:46:01.817Z,64.50
2022-08-23T21:50:59.215Z,64.08
2022-08-23T21:55:55.842Z,62.82
2022-08-23T22:00:52.581Z,62.37
2022-08-23T22:05:50.028Z,63.21
2022-08-23T22:10:57.643Z,63.37
2022-08-23T22:15:55.750Z,62.64
2022-08-23T22:20:53.166Z,62.78
2022-08-23T22:25:49.923Z,62.26
2022-08-23T22:30:46.794Z,62.03
2022-08-23T22:35:46.087Z,62.19
2022-08-23T22:40:49.742Z,61.34
2022-08-23T22:45:50.071Z,60.87
2022-08-23T22:50:47.210Z,60.95
2022-08-23T22:55:49.432Z,64.19
2022-08-23T23:00:46.076Z,65.26
2022-08-23T23:05:42.696Z,65.86
2022-08-23T23:10:39.380Z,66.13
2022-08-23T23:15:36.878Z,70.02
2022-08-23T23:20:40.310Z,71.45
2022-08-23T23:25:37.354Z,73.27
2022-08-23T23:30:34.763Z,71.52
2022-08-23T23:35:32.112Z,71.80
2022-08-23T23:40:28.947Z,72.94
2022-08-23T23:45:25.697Z,74.20
2022-08-23T23:50:22.818Z,71.69
2022-08-23T23:55:22.138Z,70.90
